Search for airport 
image banner adimage banner adimage banner ad
image banner ad

VHHH - Hong Kong International Airport (Hkia)

Located in Hong Kong, Hong Kong

ICAO - VHHH, IATA - HKG

Data provided by Airmate  

General information

Coordinates: N22°18'32" E113°54'53"
Elevation is 28 feet MSL.
 
Rated:
View ratings:
[VIEW]
View others Airports in (unassigned)

Operational data

Special qualification required
Current time UTC:
Current local time:
Weather
METAR: VHHH 290730Z 23008KT 9999 -SHRA FEW012 SCT045 29/26 Q0998 NOSIG
TAF: TAF VHHH 290500Z 2906/3012 23010KT 9999 FEW015 SCT025 TX33/2906Z TX32/3006Z TN28/2922Z TEMPO 2906/2911 VRB15G25KT 3000 TSRA SHRA FEW010CB SCT020 TEMPO 2915/2921 4000 SHRA FEW010CB SCT020 TEMPO 2921/3003 VRB15G25KT 2500 TSRA SHRA FEW008CB SCT015 BKN040 TEMPO 3006/3010 4000 SHRA FEW010CB SCT020
View NOTAMs / SUP AIP / TFR affecting this airport [VIEW]
Communications frequencies: [VIEW]

Runways:

RWY identifierQFULength (ft)Width (ft)SurfaceLDA (ft)
07R71°12467197ASP
25L251°12467197
07L71°12467197
25R251°12467197

Airport contact information

Address: Hong Kong Hong Kong

Satellite view of VHHH